This is the latest recevied weather packets stored in our database for station/object OK2ILA-6. If no packets are shown the sender has not sent any weather packets the latest 10 day(s).
| Time | Temp. | Humidity | Pressure | Rain* | Wind** | Luminosity | Snow |
|---|---|---|---|---|---|---|---|
| 1788468003 | 17.78° C | 70% | 1017.7 hPa | - | - | - | - |
| 1788467403 | 17.78° C | 72% | 1017.6 hPa | - | - | - | - |
| 1788465603 | 17.78° C | 70% | 1017.6 hPa | - | - | - | - |
| 1788448203 | 24.44° C | 46% | 1017.6 hPa | - | - | - | - |
| 1788442203 | 24.44° C | 48% | 1017.8 hPa | - | - | - | - |
| 1788441603 | 24.44° C | 50% | 1017.8 hPa | - | - | - | - |
| 1788439203 | 24.44° C | 51% | 1018 hPa | - | - | - | - |
| 1788434403 | 23.33° C | 54% | 1018.6 hPa | - | - | - | - |
| 1788433803 | 23.33° C | 55% | 1018.6 hPa | - | - | - | - |
| 1788433202 | 22.78° C | 56% | 1018.6 hPa | - | - | - | - |
| 1788431403 | 22.22° C | 56% | 1018.7 hPa | - | - | - | - |
| 1788430803 | 23.33° C | 56% | 1018.9 hPa | - | - | - | - |
| 1788430202 | 23.33° C | 55% | 1018.7 hPa | - | - | - | - |
| 1788429603 | 23.89° C | 54% | 1018.6 hPa | - | - | - | - |
| 1788428403 | 25° C | 49% | 1019 hPa | - | - | - | - |
| 1788427803 | 24.44° C | 50% | 1019 hPa | - | - | - | - |
| 1788427202 | 24.44° C | 50% | 1019.1 hPa | - | - | - | - |
| 1788426603 | 24.44° C | 52% | 1019.2 hPa | - | - | - | - |
| 1788425403 | 23.33° C | 53% | 1019.1 hPa | - | - | - | - |
| 1788424803 | 23.33° C | 54% | 1019.2 hPa | - | - | - | - |
| 1788424202 | 23.33° C | 54% | 1019.3 hPa | - | - | - | - |
| 1788423603 | 22.78° C | 56% | 1019.4 hPa | - | - | - | - |
| 1788423003 | 23.33° C | 56% | 1019.6 hPa | - | - | - | - |
| 1788422403 | 22.78° C | 56% | 1019.4 hPa | - | - | - | - |
| 1788421803 | 23.33° C | 57% | 1019.5 hPa | - | - | - | - |
* Rain since midnight (hover to see other rain measurements)
** Current wind speed in m/s (hover to see current wind gust speed)